createdAt,value
2018-04-16T00:00:32.048Z,0
2018-04-16T00:01:32.072Z,0
2018-04-16T00:03:31.604Z,0
2018-04-16T00:04:31.883Z,0
2018-04-16T00:05:32.189Z,0
2018-04-16T00:06:32.180Z,0
2018-04-16T00:07:32.206Z,0
2018-04-16T00:08:31.963Z,0
2018-04-16T00:09:46.917Z,0
2018-04-16T00:10:32.011Z,0
2018-04-16T00:11:32.297Z,0
2018-04-16T00:12:32.314Z,0
2018-04-16T00:13:46.992Z,0
2018-04-16T00:14:46.759Z,0
2018-04-16T00:15:32.121Z,0
2018-04-16T00:16:32.404Z,0
2018-04-16T00:17:32.421Z,0
2018-04-16T00:18:32.450Z,0
2018-04-16T00:20:47.146Z,0
2018-04-16T00:21:31.991Z,0
2018-04-16T00:22:47.188Z,0
2018-04-16T00:23:32.557Z,0
2018-04-16T00:24:32.350Z,0
2018-04-16T00:25:32.344Z,0
2018-04-16T00:26:32.363Z,0
2018-04-16T00:27:32.642Z,0
2018-04-16T00:28:32.401Z,0
2018-04-16T00:29:32.165Z,0
2018-04-16T00:31:32.470Z,0
2018-04-16T00:32:32.494Z,0
2018-04-16T00:33:32.509Z,0
2018-04-16T00:34:32.546Z,0
2018-04-16T00:35:47.476Z,0
2018-04-16T00:37:47.514Z,0
2018-04-16T00:38:32.615Z,0
2018-04-16T00:39:32.903Z,0
2018-04-16T00:40:32.946Z,0
2018-04-16T00:41:32.940Z,0
2018-04-16T00:42:32.969Z,0
2018-04-16T00:44:32.753Z,0
2018-04-16T00:47:02.367Z,0
2018-04-16T00:47:33.071Z,0
2018-04-16T00:48:33.096Z,0
2018-04-16T00:49:33.115Z,0
2018-04-16T00:50:32.880Z,0
2018-04-16T00:51:32.899Z,0
2018-04-16T00:52:32.923Z,0
2018-04-16T00:53:32.683Z,0
2018-04-16T00:54:32.448Z,0
2018-04-16T00:55:32.985Z,0
2018-04-16T00:57:33.027Z,0
2018-04-16T00:59:47.989Z,0
2018-04-16T01:00:33.097Z,0
2018-04-16T01:01:48.033Z,0
2018-04-16T01:02:33.495Z,0
2018-04-16T01:03:33.413Z,0
2018-04-16T01:04:33.541Z,0
2018-04-16T01:05:33.467Z,0
2018-04-16T01:07:33.242Z,0
2018-04-16T01:08:48.181Z,0
2018-04-16T01:09:33.569Z,0
2018-04-16T01:10:33.566Z,0
2018-04-16T01:11:47.986Z,0
2018-04-16T01:12:33.623Z,0
2018-04-16T01:13:33.375Z,0
2018-04-16T01:14:33.394Z,0
2018-04-16T01:15:33.680Z,0
2018-04-16T01:16:33.697Z,0
2018-04-16T01:17:33.729Z,0
2018-04-16T01:18:33.737Z,0
2018-04-16T01:19:48.158Z,0
2018-04-16T01:20:33.882Z,0
2018-04-16T01:21:33.805Z,0
2018-04-16T01:22:33.823Z,0
2018-04-16T01:23:33.591Z,0
2018-04-16T01:24:33.606Z,0
2018-04-16T01:25:33.629Z,0
2018-04-16T01:26:33.910Z,0
2018-04-16T01:27:33.932Z,0
2018-04-16T01:28:33.963Z,0
2018-04-16T01:30:33.750Z,0
2018-04-16T01:31:34.018Z,0
2018-04-16T01:32:34.045Z,0
2018-04-16T01:34:03.378Z,0
2018-04-16T01:34:34.082Z,0
2018-04-16T01:35:33.589Z,0
2018-04-16T01:36:34.127Z,0
2018-04-16T01:37:34.151Z,0
2018-04-16T01:38:34.171Z,0
2018-04-16T01:39:33.931Z,0
2018-04-16T01:40:34.216Z,0
2018-04-16T01:41:34.233Z,0
2018-04-16T01:42:34.262Z,0
2018-04-16T01:43:34.274Z,0
2018-04-16T01:44:34.296Z,0
2018-04-16T01:45:34.062Z,0
2018-04-16T01:46:33.821Z,0
2018-04-16T01:47:34.101Z,0
2018-04-16T01:48:34.388Z,0
2018-04-16T01:50:03.728Z,0
2018-04-16T01:50:34.437Z,0
2018-04-16T01:51:48.847Z,0
2018-04-16T01:52:34.471Z,0
2018-04-16T01:53:34.497Z,0
2018-04-16T01:54:34.511Z,0
2018-04-16T01:55:34.273Z,0
2018-04-16T01:56:49.219Z,0
2018-04-16T01:57:34.316Z,0
2018-04-16T01:58:34.594Z,0
2018-04-16T01:59:34.621Z,0
2018-04-16T02:00:34.380Z,0
2018-04-16T02:01:34.664Z,0
2018-04-16T02:02:34.679Z,0
2018-04-16T02:04:34.722Z,0
2018-04-16T02:05:49.401Z,0
2018-04-16T02:06:34.766Z,0
2018-04-16T02:07:34.533Z,0
2018-04-16T02:08:49.474Z,0
2018-04-16T02:09:34.570Z,0
2018-04-16T02:10:34.595Z,0
2018-04-16T02:11:35.058Z,0
2018-04-16T02:12:49.590Z,0
2018-04-16T02:13:34.921Z,0
2018-04-16T02:14:34.936Z,0
2018-04-16T02:15:34.961Z,0
2018-04-16T02:16:34.462Z,0
2018-04-16T02:17:35.002Z,0
2018-04-16T02:18:49.692Z,0
2018-04-16T02:19:35.039Z,0
2018-04-16T02:20:35.069Z,0
2018-04-16T02:22:04.400Z,0
2018-04-16T02:22:35.106Z,0
2018-04-16T02:23:34.871Z,0
2018-04-16T02:24:35.146Z,0
2018-04-16T02:25:35.168Z,0
2018-04-16T02:26:35.190Z,0
2018-04-16T02:27:34.955Z,0
2018-04-16T02:28:35.229Z,0
2018-04-16T02:29:35.256Z,0
2018-04-16T02:30:35.276Z,0
2018-04-16T02:31:35.305Z,0
2018-04-16T02:32:35.316Z,0
2018-04-16T02:33:35.349Z,0
2018-04-16T02:35:35.128Z,0
2018-04-16T02:36:50.066Z,0
2018-04-16T02:37:35.434Z,0
2018-04-16T02:38:35.451Z,0
2018-04-16T02:39:35.471Z,0
2018-04-16T02:40:35.229Z,0
2018-04-16T02:41:35.526Z,0
2018-04-16T02:42:35.381Z,0
2018-04-16T02:43:50.209Z,0
2018-04-16T02:44:35.574Z,0
2018-04-16T02:45:50.255Z,0
2018-04-16T02:46:35.631Z,0
2018-04-16T02:47:35.650Z,0
2018-04-16T02:48:35.667Z,0
2018-04-16T02:49:35.692Z,0
2018-04-16T02:50:35.712Z,0
2018-04-16T02:51:35.719Z,0
2018-04-16T02:52:35.746Z,0
2018-04-16T02:53:35.539Z,0
2018-04-16T02:54:35.799Z,0
2018-04-16T02:55:35.808Z,0
2018-04-16T02:56:35.832Z,0
2018-04-16T02:57:50.518Z,0
2018-04-16T02:58:35.871Z,0
2018-04-16T02:59:35.894Z,0
2018-04-16T03:00:35.914Z,0
2018-04-16T03:01:35.943Z,0
2018-04-16T03:02:35.964Z,0
2018-04-16T03:03:35.975Z,0
2018-04-16T03:04:36.006Z,0
2018-04-16T03:05:36.025Z,0
2018-04-16T03:06:35.780Z,0
2018-04-16T03:07:36.105Z,0
2018-04-16T03:09:05.405Z,0
2018-04-16T03:09:35.848Z,0
2018-04-16T03:10:36.128Z,0
2018-04-16T03:11:36.145Z,0
2018-04-16T03:12:35.922Z,0
2018-04-16T03:13:36.212Z,0
2018-04-16T03:14:35.948Z,0
2018-04-16T03:15:36.229Z,0
2018-04-16T03:16:36.261Z,0
2018-04-16T03:17:36.014Z,0
2018-04-16T03:18:36.038Z,0
2018-04-16T03:19:35.796Z,0
2018-04-16T03:20:36.338Z,0
2018-04-16T03:21:50.761Z,0
2018-04-16T03:22:35.962Z,0
2018-04-16T03:23:36.403Z,0
2018-04-16T03:25:05.741Z,0
2018-04-16T03:25:36.544Z,0
2018-04-16T03:26:36.469Z,0
2018-04-16T03:27:36.229Z,0
2018-04-16T03:28:50.646Z,0
2018-04-16T03:29:36.527Z,0
2018-04-16T03:30:36.555Z,0
2018-04-16T03:31:36.572Z,0
2018-04-16T03:32:36.594Z,0
2018-04-16T03:33:36.093Z,0
2018-04-16T03:34:36.632Z,0
2018-04-16T03:35:36.658Z,0
2018-04-16T03:36:36.681Z,0
2018-04-16T03:37:36.707Z,0
2018-04-16T03:38:36.720Z,0
2018-04-16T03:39:36.482Z,0
2018-04-16T03:40:51.421Z,0
2018-04-16T03:41:36.529Z,0
2018-04-16T03:42:36.803Z,0
2018-04-16T03:43:36.826Z,0
2018-04-16T03:44:36.852Z,0
2018-04-16T03:45:36.623Z,4
2018-04-16T03:46:36.900Z,4
2018-04-16T03:47:36.673Z,0
2018-04-16T03:48:36.932Z,4
2018-04-16T03:49:36.696Z,4
2018-04-16T03:50:36.971Z,4
2018-04-16T03:51:37.052Z,4
2018-04-16T03:52:37.013Z,4
2018-04-16T03:53:37.037Z,8
2018-04-16T03:54:36.802Z,4
2018-04-16T03:55:37.080Z,8
2018-04-16T03:57:06.449Z,8
2018-04-16T03:57:36.879Z,12
2018-04-16T03:58:37.147Z,16
2018-04-16T03:59:37.164Z,12
2018-04-16T04:00:37.196Z,16
2018-04-16T04:01:37.224Z,16
2018-04-16T04:02:37.226Z,20
2018-04-16T04:03:37.247Z,20
2018-04-16T04:04:37.269Z,20
2018-04-16T04:05:37.300Z,24
2018-04-16T04:06:37.317Z,24
2018-04-16T04:07:37.340Z,28
2018-04-16T04:09:52.035Z,28
2018-04-16T04:10:37.136Z,32
2018-04-16T04:12:36.933Z,36
2018-04-16T04:13:37.202Z,40
2018-04-16T04:14:37.238Z,44
2018-04-16T04:15:37.510Z,48
2018-04-16T04:16:37.004Z,52
2018-04-16T04:17:37.545Z,56
2018-04-16T04:18:37.060Z,56
2018-04-16T04:19:37.597Z,64
2018-04-16T04:20:37.619Z,68
2018-04-16T04:21:37.631Z,76
2018-04-16T04:22:37.654Z,80
2018-04-16T04:23:37.672Z,84
2018-04-16T04:24:37.437Z,84
2018-04-16T04:26:37.476Z,96
2018-04-16T04:27:37.503Z,104
2018-04-16T04:28:37.523Z,112
2018-04-16T04:29:52.198Z,120
2018-04-16T04:31:37.586Z,128
2018-04-16T04:32:37.604Z,132
2018-04-16T04:33:37.623Z,140
2018-04-16T04:34:52.564Z,148
2018-04-16T04:35:37.147Z,156
2018-04-16T04:36:37.687Z,168
2018-04-16T04:37:37.713Z,176
2018-04-16T04:38:37.731Z,192
2018-04-16T04:39:37.493Z,200
2018-04-16T04:40:38.030Z,212
2018-04-16T04:41:37.535Z,220
2018-04-16T04:43:52.758Z,256
2018-04-16T04:44:37.602Z,272
2018-04-16T04:45:38.134Z,292
2018-04-16T04:46:37.638Z,308
2018-04-16T04:47:37.665Z,320
2018-04-16T04:48:38.200Z,336
2018-04-16T04:49:37.963Z,340
2018-04-16T04:50:38.293Z,348
2018-04-16T04:52:38.282Z,360
2018-04-16T04:53:37.786Z,372
2018-04-16T04:54:38.324Z,380
2018-04-16T04:55:38.345Z,392
2018-04-16T04:56:38.367Z,404
2018-04-16T04:57:38.132Z,420
2018-04-16T04:58:38.151Z,432
2018-04-16T04:59:53.099Z,452
2018-04-16T05:00:38.199Z,464
2018-04-16T05:01:38.477Z,480
2018-04-16T05:02:38.495Z,500
2018-04-16T05:03:38.262Z,516
2018-04-16T05:04:38.539Z,536
2018-04-16T05:05:52.959Z,568
2018-04-16T05:06:38.154Z,592
2018-04-16T05:07:38.082Z,620
2018-04-16T05:08:38.363Z,648
2018-04-16T05:09:38.651Z,660
2018-04-16T05:10:38.667Z,660
2018-04-16T05:11:38.684Z,656
2018-04-16T05:12:53.427Z,656
2018-04-16T05:13:38.493Z,652
2018-04-16T05:14:38.491Z,652
2018-04-16T05:15:52.909Z,652
2018-04-16T05:16:53.190Z,648
2018-04-16T05:17:53.226Z,652
2018-04-16T05:18:38.580Z,652
2018-04-16T05:19:38.592Z,656
2018-04-16T05:20:38.879Z,656
2018-04-16T05:21:38.636Z,656
2018-04-16T05:22:53.317Z,648
2018-04-16T05:23:38.863Z,648
2018-04-16T05:24:38.963Z,648
2018-04-16T05:25:38.724Z,652
2018-04-16T05:27:39.023Z,648
2018-04-16T05:28:39.043Z,636
2018-04-16T05:29:38.805Z,612
2018-04-16T05:30:39.097Z,584
2018-04-16T05:31:53.765Z,564
2018-04-16T05:32:53.705Z,560
2018-04-16T05:33:39.150Z,564
2018-04-16T05:34:38.915Z,576
2018-04-16T05:35:39.201Z,584
2018-04-16T05:36:38.955Z,584
2018-04-16T05:37:39.237Z,584
2018-04-16T05:38:53.655Z,576
2018-04-16T05:39:39.294Z,572
2018-04-16T05:40:39.040Z,576
2018-04-16T05:41:39.062Z,584
2018-04-16T05:42:39.430Z,596
2018-04-16T05:43:54.022Z,604
2018-04-16T05:44:38.882Z,616
2018-04-16T05:47:08.744Z,644
2018-04-16T05:48:39.474Z,644
2018-04-16T05:49:39.501Z,636
2018-04-16T05:50:39.256Z,628
2018-04-16T05:51:39.541Z,620
2018-04-16T05:52:39.295Z,616
2018-04-16T05:53:54.234Z,612
2018-04-16T05:54:54.262Z,604
2018-04-16T05:55:39.618Z,608
2018-04-16T05:56:39.378Z,616
2018-04-16T05:57:39.678Z,632
2018-04-16T05:58:39.789Z,652
2018-04-16T05:59:39.702Z,672
2018-04-16T06:01:39.230Z,708
2018-04-16T06:02:39.769Z,720
2018-04-16T06:04:39.823Z,752
2018-04-16T06:05:39.836Z,764
2018-04-16T06:06:40.033Z,780
2018-04-16T06:07:39.871Z,784
2018-04-16T06:08:39.895Z,788
2018-04-16T06:09:54.576Z,780
2018-04-16T06:10:39.773Z,780
2018-04-16T06:11:39.712Z,772
2018-04-16T06:12:39.721Z,780
2018-04-16T06:13:40.124Z,792
2018-04-16T06:14:39.768Z,824
2018-04-16T06:15:39.789Z,864
2018-04-16T06:16:39.547Z,904
2018-04-16T06:17:39.820Z,948
2018-04-16T06:19:09.465Z,1012
2018-04-16T06:19:40.129Z,1028
2018-04-16T06:20:39.934Z,1068
2018-04-16T06:21:40.001Z,1100
2018-04-16T06:22:39.937Z,1136
2018-04-16T06:23:39.951Z,1172
2018-04-16T06:24:39.714Z,1216
2018-04-16T06:25:39.992Z,1260
2018-04-16T06:26:40.274Z,1316
2018-04-16T06:27:39.779Z,1364
2018-04-16T06:29:40.335Z,1484
2018-04-16T06:30:40.361Z,1540
2018-04-16T06:31:40.122Z,1592
2018-04-16T06:32:40.415Z,1648
2018-04-16T06:33:40.429Z,1680
2018-04-16T06:34:55.101Z,1712
2018-04-16T06:35:39.943Z,1724
2018-04-16T06:36:40.487Z,1744
2018-04-16T06:37:39.985Z,1768
2018-04-16T06:38:40.272Z,1800
2018-04-16T06:39:40.546Z,1848
2018-04-16T06:40:40.054Z,1884
2018-04-16T06:41:55.248Z,1952
2018-04-16T06:42:40.355Z,2004
2018-04-16T06:43:40.630Z,2088
2018-04-16T06:44:40.668Z,2160
2018-04-16T06:45:40.419Z,2232
2018-04-16T06:46:40.704Z,2288
2018-04-16T06:47:40.468Z,2328
2018-04-16T06:48:40.477Z,2340
2018-04-16T06:49:40.760Z,2340
2018-04-16T06:51:10.094Z,2316
2018-04-16T06:51:40.803Z,2308
2018-04-16T06:52:40.817Z,2292
2018-04-16T06:53:40.849Z,2300
2018-04-16T06:54:40.601Z,2320
2018-04-16T06:55:40.627Z,2360
2018-04-16T06:56:40.903Z,2416
2018-04-16T06:57:40.932Z,2504
2018-04-16T06:58:55.346Z,2604
2018-04-16T06:59:40.732Z,2644
2018-04-16T07:00:55.686Z,2676
2018-04-16T07:01:41.109Z,2668
2018-04-16T07:02:41.036Z,2644
2018-04-16T07:03:41.074Z,2592
2018-04-16T07:04:40.839Z,2540
2018-04-16T07:05:41.154Z,2480
2018-04-16T07:06:55.795Z,2420
2018-04-16T07:07:40.886Z,2400
2018-04-16T07:08:41.190Z,2404
2018-04-16T07:09:40.667Z,2436
2018-04-16T07:10:41.225Z,2488
2018-04-16T07:11:41.233Z,2536
2018-04-16T07:12:41.252Z,2576
2018-04-16T07:13:41.281Z,2612
2018-04-16T07:14:41.281Z,2640
2018-04-16T07:15:56.176Z,2648
2018-04-16T07:16:41.412Z,2636
2018-04-16T07:17:55.788Z,2588
2018-04-16T07:18:41.118Z,2552
2018-04-16T07:19:41.202Z,2504
2018-04-16T07:20:41.417Z,2448
2018-04-16T07:21:56.095Z,2400
2018-04-16T07:22:41.211Z,2380
2018-04-16T07:24:41.235Z,2356
2018-04-16T07:25:40.995Z,2340
2018-04-16T07:26:41.284Z,2328
2018-04-16T07:27:41.321Z,2324
2018-04-16T07:28:41.328Z,2312
2018-04-16T07:29:41.341Z,2304
2018-04-16T07:30:41.363Z,2300
2018-04-16T07:31:41.647Z,2304
2018-04-16T07:32:41.659Z,2280
2018-04-16T07:33:41.865Z,2268
2018-04-16T07:34:41.454Z,2264
2018-04-16T07:35:41.466Z,2268
2018-04-16T07:36:41.492Z,2280
2018-04-16T07:37:41.773Z,2296
2018-04-16T07:38:41.802Z,2316
2018-04-16T07:39:41.812Z,2316
2018-04-16T07:40:41.832Z,2300
2018-04-16T07:41:41.851Z,2300
2018-04-16T07:42:41.880Z,2268
2018-04-16T07:43:41.961Z,2236
2018-04-16T07:44:41.399Z,2228
2018-04-16T07:45:41.684Z,2216
2018-04-16T07:46:41.710Z,2232
2018-04-16T07:47:41.981Z,2260
2018-04-16T07:48:41.999Z,2296
2018-04-16T07:49:42.025Z,2324
2018-04-16T07:50:42.041Z,2356
2018-04-16T07:51:41.805Z,2372
2018-04-16T07:52:42.087Z,2400
2018-04-16T07:54:11.424Z,2460
2018-04-16T07:54:42.229Z,2480
2018-04-16T07:55:42.156Z,2532
2018-04-16T07:56:56.567Z,2584
2018-04-16T07:57:41.938Z,2640
2018-04-16T07:58:41.958Z,2692
2018-04-16T07:59:41.975Z,2768
2018-04-16T08:00:41.998Z,2836
2018-04-16T08:01:42.285Z,2904
2018-04-16T08:02:42.299Z,2972
2018-04-16T08:03:56.722Z,3044
2018-04-16T08:04:42.342Z,3092
2018-04-16T08:05:42.100Z,3168
2018-04-16T08:06:42.253Z,3252
2018-04-16T08:07:42.142Z,3320
2018-04-16T08:08:42.442Z,3420
2018-04-16T08:09:57.150Z,3576
2018-04-16T08:10:57.131Z,3712
2018-04-16T08:11:42.490Z,3836
2018-04-16T08:12:42.618Z,3952
2018-04-16T08:13:42.530Z,4092
2018-04-16T08:14:42.551Z,4188
2018-04-16T08:15:42.313Z,4276
2018-04-16T08:16:42.079Z,4360
2018-04-16T08:17:42.356Z,4420
2018-04-16T08:18:42.642Z,4468
2018-04-16T08:19:56.798Z,4500
2018-04-16T08:20:42.162Z,4492
2018-04-16T08:21:42.442Z,4416
2018-04-16T08:22:42.719Z,4344
2018-04-16T08:23:42.484Z,4228
2018-04-16T08:24:57.426Z,4104
2018-04-16T08:25:57.186Z,4052
2018-04-16T08:26:42.550Z,4052
2018-04-16T08:27:42.832Z,4060
2018-04-16T08:28:42.853Z,4092
2018-04-16T08:30:42.645Z,4060
2018-04-16T08:31:42.925Z,4008
2018-04-16T08:32:42.942Z,3920
2018-04-16T08:33:42.961Z,3848
2018-04-16T08:34:42.976Z,3816
2018-04-16T08:35:43.002Z,3828
2018-04-16T08:36:43.023Z,3876
2018-04-16T08:37:43.046Z,3920
2018-04-16T08:38:42.544Z,3964
2018-04-16T08:39:43.184Z,4016
2018-04-16T08:40:42.847Z,4060
2018-04-16T08:42:42.896Z,4156
2018-04-16T08:43:42.661Z,4204
2018-04-16T08:44:43.194Z,4244
2018-04-16T08:45:43.218Z,4292
2018-04-16T08:46:43.235Z,4404
2018-04-16T08:48:43.279Z,4648
2018-04-16T08:49:43.039Z,4796
2018-04-16T08:50:43.338Z,4932
2018-04-16T08:51:43.341Z,5048
2018-04-16T08:52:43.491Z,5132
2018-04-16T08:53:43.409Z,5192
2018-04-16T08:54:43.413Z,5232
2018-04-16T08:55:43.171Z,5260
2018-04-16T08:57:12.770Z,5340
2018-04-16T08:57:43.222Z,5372
2018-04-16T08:58:57.899Z,5464
2018-04-16T08:59:43.648Z,5556
2018-04-16T09:00:43.729Z,5700
2018-04-16T09:01:43.561Z,5840
2018-04-16T09:02:43.332Z,5980
2018-04-16T09:03:58.262Z,6168
2018-04-16T09:04:43.623Z,6236
2018-04-16T09:05:43.644Z,6312
2018-04-16T09:06:43.676Z,6364
2018-04-16T09:07:43.171Z,6404
2018-04-16T09:08:43.497Z,6408
2018-04-16T09:09:43.747Z,6392
2018-04-16T09:10:58.414Z,6372
2018-04-16T09:11:43.784Z,6428
2018-04-16T09:13:43.835Z,6592
2018-04-16T09:14:58.241Z,6688
2018-04-16T09:15:43.354Z,6688
2018-04-16T09:16:58.290Z,6572
2018-04-16T09:17:43.906Z,6448
2018-04-16T09:18:58.596Z,6196
2018-04-16T09:19:43.949Z,6052
2018-04-16T09:20:58.631Z,5868
2018-04-16T09:21:43.734Z,5792
2018-04-16T09:22:44.017Z,5708
2018-04-16T09:23:44.038Z,5636
2018-04-16T09:24:43.803Z,5540
2018-04-16T09:25:43.837Z,5476
2018-04-16T09:26:44.102Z,5432
2018-04-16T09:27:44.238Z,5412
2018-04-16T09:28:58.812Z,5396
2018-04-16T09:29:43.923Z,5396
2018-04-16T09:30:44.196Z,5404
2018-04-16T09:31:44.224Z,5452
2018-04-16T09:32:58.675Z,5556
2018-04-16T09:33:44.263Z,5620
2018-04-16T09:34:44.289Z,5708
2018-04-16T09:35:43.789Z,5764
2018-04-16T09:36:44.343Z,5816
2018-04-16T09:37:44.086Z,5860
2018-04-16T09:38:44.488Z,5928
2018-04-16T09:39:44.583Z,6032
2018-04-16T09:40:44.417Z,6192
2018-04-16T09:41:43.916Z,6380
2018-04-16T09:43:44.216Z,6816
2018-04-16T09:45:58.922Z,7228
2018-04-16T09:46:44.547Z,7320
2018-04-16T09:47:44.566Z,7436
2018-04-16T09:48:44.333Z,7552
2018-04-16T09:49:44.608Z,7684
2018-04-16T09:50:59.292Z,7840
2018-04-16T09:51:59.314Z,7988
2018-04-16T09:52:44.159Z,8104
2018-04-16T09:53:44.446Z,8280
2018-04-16T09:54:44.729Z,8480
2018-04-16T09:55:44.745Z,8692
2018-04-16T09:56:44.506Z,8884
2018-04-16T09:57:44.793Z,9048
2018-04-16T09:58:44.817Z,9164
2018-04-16T09:59:44.835Z,9244
2018-04-16T10:01:44.361Z,9268
2018-04-16T10:02:44.647Z,9288
2018-04-16T10:03:44.923Z,9320
2018-04-16T10:04:44.962Z,9376
2018-04-16T10:05:44.972Z,9464
2018-04-16T10:06:44.996Z,9552
2018-04-16T10:07:59.678Z,9660
2018-04-16T10:08:44.516Z,9724
2018-04-16T10:09:45.061Z,9776
2018-04-16T10:10:44.821Z,9816
2018-04-16T10:11:59.764Z,9852
2018-04-16T10:12:44.871Z,9872
2018-04-16T10:13:59.806Z,9908
2018-04-16T10:14:45.172Z,9912
2018-04-16T10:15:45.200Z,9900
2018-04-16T10:16:59.622Z,9856
2018-04-16T10:17:45.238Z,9828
2018-04-16T10:18:45.266Z,9776
2018-04-16T10:19:45.288Z,9732
2018-04-16T10:20:59.707Z,9676
2018-04-16T10:21:45.334Z,9636
2018-04-16T10:22:45.357Z,9592
2018-04-16T10:23:44.853Z,9520
2018-04-16T10:24:45.395Z,9460
2018-04-16T10:25:45.417Z,9384
2018-04-16T10:26:45.181Z,9292
2018-04-16T10:27:45.205Z,9144
2018-04-16T10:28:45.498Z,8984
2018-04-16T10:29:45.525Z,8856
2018-04-16T10:30:45.581Z,8856
2018-04-16T10:32:14.874Z,9212
2018-04-16T10:32:59.980Z,9592
2018-04-16T10:33:45.702Z,10120
2018-04-16T10:34:45.621Z,10892
2018-04-16T10:35:45.392Z,11624
2018-04-16T10:36:45.671Z,12284
2018-04-16T10:37:45.701Z,12900
2018-04-16T10:38:45.464Z,13376
2018-04-16T10:39:45.482Z,13744
2018-04-16T10:40:45.765Z,13964
2018-04-16T10:41:45.784Z,14248
2018-04-16T10:43:45.591Z,14664
2018-04-16T10:44:45.864Z,14696
2018-04-16T10:45:45.882Z,14192
2018-04-16T10:46:46.006Z,13548
2018-04-16T10:47:45.926Z,13012
2018-04-16T10:48:45.954Z,12664
2018-04-16T10:49:45.879Z,12352
2018-04-16T10:50:45.734Z,12376
2018-04-16T10:51:46.019Z,13064
2018-04-16T10:52:46.052Z,14280
2018-04-16T10:54:00.724Z,15700
2018-04-16T10:54:46.086Z,16336
2018-04-16T10:55:46.343Z,16732
2018-04-16T10:56:46.136Z,16744
2018-04-16T10:58:00.858Z,17008
2018-04-16T10:58:45.925Z,17048
2018-04-16T10:59:46.209Z,16636
2018-04-16T11:00:45.974Z,16180
2018-04-16T11:01:45.998Z,15668
2018-04-16T11:04:15.618Z,15912
2018-04-16T11:04:46.323Z,16372
2018-04-16T11:06:00.489Z,16872
2018-04-16T11:06:46.367Z,16636
2018-04-16T11:07:46.136Z,16420
2018-04-16T11:08:45.901Z,16204
2018-04-16T11:10:01.102Z,16204
2018-04-16T11:10:46.215Z,16304
2018-04-16T11:12:01.150Z,16432
2018-04-16T11:12:46.257Z,16408
2018-04-16T11:13:46.537Z,16332
2018-04-16T11:14:46.566Z,16252
2018-04-16T11:15:46.591Z,16196
2018-04-16T11:17:01.271Z,16048
2018-04-16T11:17:46.637Z,15768
2018-04-16T11:18:46.399Z,15240
2018-04-16T11:20:16.002Z,14240
2018-04-16T11:20:46.193Z,13988
2018-04-16T11:21:46.747Z,13248
2018-04-16T11:23:46.782Z,11560
2018-04-16T11:24:46.809Z,10752
2018-04-16T11:25:46.567Z,9724
2018-04-16T11:26:46.857Z,9164
2018-04-16T11:28:01.276Z,8696
2018-04-16T11:28:46.902Z,8600
2018-04-16T11:29:46.933Z,8716
2018-04-16T11:30:46.961Z,9076
2018-04-16T11:31:46.986Z,9584
2018-04-16T11:32:46.737Z,10088
2018-04-16T11:34:01.782Z,10820
2018-04-16T11:36:16.388Z,11940
2018-04-16T11:36:47.101Z,12028
2018-04-16T11:37:46.859Z,11980
2018-04-16T11:38:47.145Z,11688
2018-04-16T11:39:47.190Z,11304
2018-04-16T11:41:01.592Z,10888
2018-04-16T11:41:47.217Z,10708
2018-04-16T11:42:46.721Z,10652
2018-04-16T11:43:47.003Z,10840
2018-04-16T11:44:47.288Z,11088
2018-04-16T11:45:47.050Z,11568
2018-04-16T11:46:47.074Z,11820
2018-04-16T11:47:47.391Z,12192
2018-04-16T11:48:47.380Z,12484
2018-04-16T11:50:47.184Z,12728
2018-04-16T11:52:16.775Z,12656
2018-04-16T11:52:47.224Z,12644
2018-04-16T11:53:47.518Z,12624
2018-04-16T11:54:47.531Z,12664
2018-04-16T11:55:47.293Z,12756
2018-04-16T11:56:47.578Z,12904
2018-04-16T11:57:47.623Z,12972
2018-04-16T11:59:02.286Z,12888
2018-04-16T11:59:47.648Z,12788
2018-04-16T12:00:47.677Z,12784
2018-04-16T12:01:47.696Z,12576
2018-04-16T12:02:47.463Z,12192
2018-04-16T12:04:02.152Z,12080
2018-04-16T12:04:47.712Z,12136
2018-04-16T12:07:17.144Z,11500
2018-04-16T12:08:02.246Z,11112
2018-04-16T12:08:47.876Z,10724
2018-04-16T12:10:47.919Z,9732
2018-04-16T12:11:47.943Z,9304
2018-04-16T12:12:47.712Z,8928
2018-04-16T12:13:47.995Z,8576
2018-04-16T12:14:48.021Z,8160
2018-04-16T12:15:47.790Z,7712
2018-04-16T12:17:02.777Z,7232
2018-04-16T12:17:48.168Z,7040
2018-04-16T12:18:48.159Z,6920
2018-04-16T12:19:47.983Z,6948
2018-04-16T12:20:48.166Z,7068
2018-04-16T12:21:48.192Z,7244
2018-04-16T12:22:48.221Z,7408
2018-04-16T12:23:48.313Z,7524
2018-04-16T12:24:48.281Z,7540
2018-04-16T12:25:48.422Z,7532
2018-04-16T12:26:48.312Z,7464
2018-04-16T12:27:48.432Z,7380
2018-04-16T12:28:48.358Z,7304
2018-04-16T12:30:03.043Z,7304
2018-04-16T12:30:48.523Z,7356
2018-04-16T12:31:48.176Z,7464
2018-04-16T12:32:48.464Z,7556
2018-04-16T12:33:48.477Z,7600
2018-04-16T12:34:48.247Z,7552
2018-04-16T12:35:48.280Z,7460
2018-04-16T12:36:48.553Z,7340
2018-04-16T12:37:48.580Z,7236
2018-04-16T12:39:17.921Z,7124
2018-04-16T12:39:48.642Z,7088
2018-04-16T12:40:48.655Z,7020
2018-04-16T12:41:48.680Z,6916
2018-04-16T12:42:48.696Z,6776
2018-04-16T12:43:48.728Z,6596
2018-04-16T12:44:48.752Z,6404
2018-04-16T12:45:48.522Z,6208
2018-04-16T12:46:48.799Z,6032
2018-04-16T12:47:48.824Z,5880
2018-04-16T12:48:48.849Z,5776
2018-04-16T12:49:48.611Z,5692
2018-04-16T12:50:48.632Z,5632
2018-04-16T12:51:48.919Z,5576
2018-04-16T12:52:48.984Z,5520
2018-04-16T12:54:03.366Z,5460
2018-04-16T12:55:03.391Z,5440
2018-04-16T12:55:49.017Z,5448
2018-04-16T12:56:48.518Z,5512
2018-04-16T12:57:49.064Z,5624
2018-04-16T12:58:48.576Z,5788
2018-04-16T12:59:49.111Z,6012
2018-04-16T13:00:49.132Z,6272
2018-04-16T13:01:48.899Z,6564
2018-04-16T13:02:49.181Z,6868
2018-04-16T13:03:49.205Z,7156
2018-04-16T13:04:49.229Z,7416
2018-04-16T13:05:49.253Z,7624
2018-04-16T13:06:48.772Z,7784
2018-04-16T13:07:49.106Z,7904
2018-04-16T13:08:49.066Z,7976
2018-04-16T13:09:49.361Z,7992
2018-04-16T13:11:18.693Z,7956
2018-04-16T13:11:49.403Z,7928
2018-04-16T13:12:48.904Z,7844
2018-04-16T13:13:49.450Z,7732
2018-04-16T13:14:49.299Z,7592
2018-04-16T13:15:49.494Z,7440
2018-04-16T13:16:49.001Z,7300
2018-04-16T13:18:04.203Z,7140
2018-04-16T13:18:49.314Z,7064
2018-04-16T13:19:49.590Z,6980
2018-04-16T13:20:49.362Z,6928
2018-04-16T13:21:49.647Z,6868
2018-04-16T13:22:49.152Z,6804
2018-04-16T13:27:19.079Z,6596
2018-04-16T13:27:49.788Z,6600
2018-04-16T13:28:49.811Z,6600
2018-04-16T13:29:49.833Z,6592
2018-04-16T13:30:49.858Z,6568
2018-04-16T13:31:49.885Z,6536
2018-04-16T13:33:49.934Z,6488
2018-04-16T13:34:49.696Z,6480
2018-04-16T13:35:49.979Z,6472
2018-04-16T13:36:50.015Z,6472
2018-04-16T13:37:49.771Z,6480
2018-04-16T13:39:04.730Z,6480
2018-04-16T13:40:04.480Z,6480
2018-04-16T13:40:49.841Z,6468
2018-04-16T13:42:04.786Z,6440
2018-04-16T13:42:50.149Z,6412
2018-04-16T13:43:50.175Z,6372
2018-04-16T13:44:50.200Z,6304
2018-04-16T13:45:50.225Z,6240
2018-04-16T13:46:50.247Z,6176
2018-04-16T13:47:50.014Z,6100
2018-04-16T13:48:49.786Z,6024
2018-04-16T13:49:50.321Z,5956
2018-04-16T13:51:05.000Z,5892
2018-04-16T13:51:49.850Z,5872
2018-04-16T13:52:50.398Z,5856
2018-04-16T13:53:50.416Z,5840
2018-04-16T13:54:50.439Z,5828
2018-04-16T13:55:50.467Z,5816
2018-04-16T13:56:50.235Z,5796
2018-04-16T13:57:50.514Z,5764
2018-04-16T13:59:04.948Z,5736
2018-04-16T13:59:50.563Z,5720
2018-04-16T14:01:50.614Z,5676
2018-04-16T14:02:50.378Z,5640
2018-04-16T14:03:50.398Z,5592
2018-04-16T14:04:50.684Z,5524
2018-04-16T14:05:50.707Z,5448
2018-04-16T14:06:50.841Z,5364
2018-04-16T14:07:50.755Z,5264
2018-04-16T14:08:50.784Z,5148
2018-04-16T14:09:50.803Z,5024
2018-04-16T14:10:50.831Z,4900
2018-04-16T14:11:50.609Z,4776
2018-04-16T14:12:50.882Z,4652
2018-04-16T14:14:05.614Z,4496
2018-04-16T14:14:50.666Z,4400
2018-04-16T14:15:50.702Z,4264
2018-04-16T14:16:50.972Z,4120
2018-04-16T14:17:50.744Z,3972
2018-04-16T14:18:50.767Z,3824
2018-04-16T14:19:51.055Z,3676
2018-04-16T14:20:50.550Z,3544
2018-04-16T14:21:50.838Z,3416
2018-04-16T14:22:51.116Z,3304
2018-04-16T14:23:51.141Z,3208
2018-04-16T14:24:50.903Z,3140
2018-04-16T14:25:51.200Z,3088
2018-04-16T14:26:50.956Z,3048
2018-04-16T14:27:51.238Z,3008